Time;durP1;ratioP1;P1;durP2;ratioP2;P2;SDS_P1;SDS_P2;PMS_P1;PMS_P2;Temp;Humidity;BMP_temperature;BMP_pressure;BME280_temperature;BME280_humidity;BME280_pressure;Samples;Min_cycle;Max_cycle;Signal;HPM_P1;HPM_P2
2021/10/30 00:02:15;;;;;;;3.30;2.00;;;;;;;9.27;55.93;95031.19;5053024;28;20181;-77
2021/10/30 00:04:40;;;;;;;3.80;2.13;;;;;;;9.24;55.86;95028.94;5069092;28;20208;-77
2021/10/30 00:07:05;;;;;;;3.80;2.00;;;;;;;9.17;56.24;95024.50;5069805;28;20266;-77
2021/10/30 00:09:31;;;;;;;3.40;2.50;;;;;;;9.19;56.34;95025.16;5070744;28;20201;-77
2021/10/30 00:11:56;;;;;;;2.93;1.87;;;;;;;9.19;55.63;95030.34;5069612;28;20192;-77
2021/10/30 00:14:21;;;;;;;3.83;2.20;;;;;;;9.11;55.85;95030.31;5056228;28;20185;-77
2021/10/30 00:16:47;;;;;;;3.37;2.00;;;;;;;9.12;55.99;95021.56;5061299;28;20589;-77
2021/10/30 00:19:13;;;;;;;2.63;2.20;;;;;;;8.99;56.56;95032.28;5069615;28;20204;-77
2021/10/30 00:21:38;;;;;;;3.13;2.00;;;;;;;8.94;56.33;95024.19;5069698;28;20212;-77
2021/10/30 00:24:04;;;;;;;2.93;2.03;;;;;;;8.89;56.24;95024.63;5066901;28;20230;-77
2021/10/30 00:26:29;;;;;;;2.47;2.17;;;;;;;9.00;55.78;95015.78;5065061;28;20239;-77
2021/10/30 00:28:54;;;;;;;6.20;2.30;;;;;;;8.93;56.25;95017.38;5073900;28;20208;-77
2021/10/30 00:31:19;;;;;;;2.87;1.93;;;;;;;8.89;56.29;95009.09;5075410;28;20260;-77
2021/10/30 00:33:45;;;;;;;4.30;2.07;;;;;;;8.89;56.20;95008.28;5054440;28;20205;-77
2021/10/30 00:36:10;;;;;;;4.07;2.03;;;;;;;8.92;55.83;95005.38;5044994;28;20178;-77
2021/10/30 00:38:36;;;;;;;2.70;2.10;;;;;;;8.87;55.81;95007.63;5064765;28;20201;-77
2021/10/30 00:41:05;;;;;;;2.90;2.10;;;;;;;8.79;55.99;94992.81;5036565;28;20201;-77
2021/10/30 00:43:31;;;;;;;2.23;1.73;;;;;;;8.76;56.20;94993.94;5036300;28;20222;-77
2021/10/30 00:45:57;;;;;;;3.13;2.07;;;;;;;8.72;56.02;94990.00;5060636;28;20185;-77
2021/10/30 00:48:22;;;;;;;3.13;1.90;;;;;;;8.67;56.41;94988.84;5064043;28;20723;-77
2021/10/30 00:50:47;;;;;;;2.87;1.97;;;;;;;8.67;56.45;94992.25;5053292;28;20227;-77
2021/10/30 00:53:13;;;;;;;4.00;1.90;;;;;;;8.64;56.42;94992.53;5052950;28;20265;-77
2021/10/30 00:55:41;;;;;;;2.57;1.80;;;;;;;8.63;55.95;94990.91;5057302;28;20694;-77
2021/10/30 00:58:07;;;;;;;3.27;1.70;;;;;;;8.72;56.02;94986.63;5048278;28;20182;-77
2021/10/30 01:00:32;;;;;;;2.50;1.80;;;;;;;8.67;55.77;94984.50;5054159;28;20182;-77
2021/10/30 01:02:58;;;;;;;2.10;1.63;;;;;;;8.63;56.21;94985.75;5036415;28;20638;-77
2021/10/30 01:05:23;;;;;;;3.13;2.00;;;;;;;8.58;56.07;94980.22;5051569;28;20680;-77
2021/10/30 01:07:49;;;;;;;2.33;1.80;;;;;;;8.67;55.65;94984.50;5062192;28;20196;-77
2021/10/30 01:10:15;;;;;;;4.57;2.03;;;;;;;8.64;55.79;94982.19;5069863;28;20216;-76
2021/10/30 01:12:40;;;;;;;3.63;2.10;;;;;;;8.56;56.16;94979.53;5072756;28;20563;-77
2021/10/30 01:15:07;;;;;;;2.87;1.73;;;;;;;8.48;56.29;94979.44;5072049;28;20173;-77
2021/10/30 01:17:33;;;;;;;1.90;1.70;;;;;;;8.44;56.20;94975.53;5047459;28;20263;-77
2021/10/30 01:19:58;;;;;;;4.30;1.80;;;;;;;8.45;56.08;94966.81;5058664;28;20204;-77
2021/10/30 01:22:23;;;;;;;5.33;2.10;;;;;;;8.41;55.90;94962.91;5035746;28;20190;-77
2021/10/30 01:24:50;;;;;;;3.97;1.80;;;;;;;8.43;55.62;94963.56;5051841;28;20640;-77
2021/10/30 01:27:19;;;;;;;5.97;2.00;;;;;;;8.41;55.87;94961.16;5055399;28;20184;-77
2021/10/30 01:29:47;;;;;;;2.10;1.70;;;;;;;8.40;55.70;94953.53;5063193;28;20315;-77
2021/10/30 01:32:18;;;;;;;3.27;2.10;;;;;;;8.39;55.45;94954.47;5072396;28;20185;-77
2021/10/30 01:34:44;;;;;;;3.60;1.90;;;;;;;8.48;54.96;94953.56;5054813;28;20243;-77
2021/10/30 01:37:09;;;;;;;2.33;1.60;;;;;;;8.45;55.08;94954.69;5072257;28;20189;-77
2021/10/30 01:39:34;;;;;;;2.70;1.60;;;;;;;8.40;55.05;94946.59;5064247;28;20700;-77
2021/10/30 01:42:00;;;;;;;2.37;1.47;;;;;;;8.46;54.82;94953.72;5067457;28;20204;-77
2021/10/30 01:44:25;;;;;;;2.27;1.27;;;;;;;8.46;54.50;94942.56;5071467;28;20197;-77
2021/10/30 01:46:55;;;;;;;2.00;1.43;;;;;;;8.44;54.34;94932.38;5072079;28;20177;-77
2021/10/30 01:49:20;;;;;;;2.67;1.43;;;;;;;8.41;54.72;94937.03;5062136;28;20289;-77
2021/10/30 01:51:46;;;;;;;3.13;1.60;;;;;;;8.35;54.75;94928.09;5059876;28;20189;-77
2021/10/30 01:54:11;;;;;;;1.83;1.50;;;;;;;8.26;55.37;94939.31;5052542;28;20332;-77
2021/10/30 01:56:36;;;;;;;1.83;1.30;;;;;;;8.18;55.62;94921.94;5053287;28;20177;-77
2021/10/30 01:59:02;;;;;;;4.30;1.53;;;;;;;8.16;55.48;94920.47;5052478;28;20210;-77
2021/10/30 02:01:27;;;;;;;2.00;1.47;;;;;;;8.19;55.56;94920.97;5062587;28;20236;-77
2021/10/30 02:03:52;;;;;;;1.77;1.47;;;;;;;8.21;55.18;94921.63;5071181;28;20211;-77
2021/10/30 02:06:18;;;;;;;2.70;1.57;;;;;;;8.18;55.34;94916.75;5055011;28;20215;-77
2021/10/30 02:08:43;;;;;;;2.33;1.43;;;;;;;8.18;55.26;94923.69;5071461;28;20768;-77
2021/10/30 02:11:08;;;;;;;2.60;1.33;;;;;;;8.18;55.09;94921.13;5043937;28;20186;-77
2021/10/30 02:13:33;;;;;;;1.77;1.20;;;;;;;8.22;54.78;94917.28;5060302;28;20189;-77
2021/10/30 02:15:59;;;;;;;1.97;1.23;;;;;;;8.18;55.13;94916.75;5052708;28;20209;-77
2021/10/30 02:18:24;;;;;;;1.87;1.20;;;;;;;8.15;54.91;94913.66;5051486;28;20266;-77
2021/10/30 02:20:49;;;;;;;2.50;1.40;;;;;;;8.14;54.42;94906.88;5034731;28;20604;-77
2021/10/30 02:23:15;;;;;;;2.57;1.17;;;;;;;8.11;54.50;94904.56;5051257;28;20190;-77
2021/10/30 02:25:40;;;;;;;1.37;1.10;;;;;;;8.07;54.98;94909.22;5051962;28;20653;-77
2021/10/30 02:28:06;;;;;;;1.37;1.20;;;;;;;8.06;56.07;94901.63;5050225;28;20189;-77
2021/10/30 02:30:31;;;;;;;3.27;1.60;;;;;;;7.98;55.71;94894.59;5052473;28;20232;-77
2021/10/30 02:32:56;;;;;;;2.80;1.47;;;;;;;8.00;55.44;94897.03;5060291;28;20189;-77
2021/10/30 02:35:22;;;;;;;1.73;1.37;;;;;;;8.09;54.93;94896.97;5068817;28;20239;-77
2021/10/30 02:37:47;;;;;;;3.60;1.70;;;;;;;8.23;54.13;94882.69;5071065;28;20188;-77
2021/10/30 02:40:12;;;;;;;1.50;1.40;;;;;;;8.32;53.25;94879.22;5070992;28;20568;-77
2021/10/30 02:42:38;;;;;;;1.87;1.40;;;;;;;8.30;53.98;94880.31;5047974;28;20235;-77
2021/10/30 02:45:04;;;;;;;4.00;1.90;;;;;;;8.37;53.21;94871.84;5062669;28;20634;-77
2021/10/30 02:47:30;;;;;;;2.00;1.67;;;;;;;8.44;53.04;94866.88;5051643;28;20178;-77
2021/10/30 02:49:55;;;;;;;2.43;1.63;;;;;;;8.39;53.29;94866.50;5050731;28;20206;-77
2021/10/30 02:52:21;;;;;;;2.03;1.50;;;;;;;8.36;53.35;94859.88;5033986;28;20192;-77
2021/10/30 02:54:46;;;;;;;2.27;1.87;;;;;;;8.43;53.44;94852.31;5058551;28;20186;-77
2021/10/30 02:57:11;;;;;;;2.53;1.60;;;;;;;8.40;53.34;94843.09;5058428;28;20206;-76
2021/10/30 02:59:37;;;;;;;1.57;1.40;;;;;;;8.36;53.61;94841.75;5051855;28;20255;-77
2021/10/30 03:02:03;;;;;;;1.60;1.43;;;;;;;8.29;53.60;94832.94;5051913;28;20846;-77
2021/10/30 03:04:28;;;;;;;2.57;1.30;;;;;;;8.23;53.54;94825.78;5059018;28;20568;-77
2021/10/30 03:06:53;;;;;;;1.57;1.30;;;;;;;8.30;53.03;94828.56;5064752;28;20207;-77
2021/10/30 03:09:19;;;;;;;1.43;1.20;;;;;;;8.33;52.95;94829.09;5070241;28;20205;-77
2021/10/30 03:11:45;;;;;;;2.37;1.30;;;;;;;8.38;52.66;94823.50;5053632;28;20235;-76
2021/10/30 03:14:10;;;;;;;1.23;1.13;;;;;;;8.43;52.22;94824.66;5065356;28;20653;-76
2021/10/30 03:16:35;;;;;;;2.13;1.20;;;;;;;8.45;51.87;94820.16;5063692;28;20611;-76
2021/10/30 03:19:00;;;;;;;3.63;1.27;;;;;;;8.39;52.30;94817.34;5070328;28;20724;-76
2021/10/30 03:21:26;;;;;;;2.13;1.20;;;;;;;8.37;52.29;94819.28;5070223;28;20185;-76
2021/10/30 03:23:51;;;;;;;1.40;1.30;;;;;;;8.34;52.41;94815.19;5069479;28;20180;-76
2021/10/30 03:26:17;;;;;;;2.07;1.50;;;;;;;8.35;52.49;94808.28;5042261;28;20182;-76
2021/10/30 03:28:42;;;;;;;1.27;1.00;;;;;;;8.23;53.16;94807.69;5056029;28;20209;-76
2021/10/30 03:31:07;;;;;;;3.27;1.70;;;;;;;8.28;54.18;94808.03;5050410;28;20188;-77
2021/10/30 03:33:33;;;;;;;2.20;1.87;;;;;;;8.15;54.59;94813.63;5032775;28;20669;-76
2021/10/30 03:35:58;;;;;;;2.50;1.97;;;;;;;8.00;57.32;94802.19;5050205;28;20215;-76
2021/10/30 03:38:24;;;;;;;3.47;1.73;;;;;;;7.70;57.89;94797.41;5048198;28;20664;-76
2021/10/30 03:40:49;;;;;;;2.60;1.67;;;;;;;7.65;57.32;94796.06;5033421;28;20181;-76
2021/10/30 03:43:15;;;;;;;2.37;1.80;;;;;;;7.62;57.00;94796.38;5050353;28;20190;-76
2021/10/30 03:45:40;;;;;;;3.67;1.90;;;;;;;7.57;57.35;94792.59;5049634;28;20178;-76
2021/10/30 03:48:09;;;;;;;2.70;1.60;;;;;;;7.59;57.12;94781.16;5058491;28;20266;-76
2021/10/30 03:50:36;;;;;;;3.17;1.80;;;;;;;7.64;57.17;94788.47;5051014;28;20681;-76
2021/10/30 03:53:01;;;;;;;2.33;2.00;;;;;;;7.64;56.97;94784.13;5049728;28;20265;-76
2021/10/30 03:55:27;;;;;;;2.53;1.50;;;;;;;7.72;56.62;94779.97;5049471;28;20273;-77
2021/10/30 03:57:52;;;;;;;2.73;1.60;;;;;;;7.70;56.50;94781.91;5042769;28;20221;-77
2021/10/30 04:00:18;;;;;;;1.93;1.60;;;;;;;7.69;56.63;94775.13;5059333;28;20193;-77
2021/10/30 04:02:43;;;;;;;2.50;1.60;;;;;;;7.71;56.49;94778.34;5049734;28;20599;-77
2021/10/30 04:05:09;;;;;;;2.87;1.80;;;;;;;7.74;56.07;94778.06;5032417;28;20184;-77
2021/10/30 04:07:34;;;;;;;2.40;1.70;;;;;;;7.81;55.95;94769.56;5053943;28;20184;-76
2021/10/30 04:09:59;;;;;;;3.60;2.00;;;;;;;7.76;56.45;94764.00;5045512;28;20240;-77
2021/10/30 04:12:24;;;;;;;3.80;1.90;;;;;;;7.78;56.34;94764.69;5049558;28;20652;-77
2021/10/30 04:14:50;;;;;;;2.13;1.70;;;;;;;7.82;56.02;94763.41;5032239;28;20185;-77
2021/10/30 04:17:15;;;;;;;2.00;1.80;;;;;;;7.83;55.79;94753.91;5032749;28;20182;-77
2021/10/30 04:19:40;;;;;;;2.97;1.90;;;;;;;7.89;55.62;94755.88;5059697;28;20696;-77
2021/10/30 04:22:06;;;;;;;2.03;1.60;;;;;;;7.89;55.48;94753.31;5065641;28;20181;-77
2021/10/30 04:24:31;;;;;;;2.60;1.70;;;;;;;7.87;55.45;94756.03;5068711;28;20648;-77
2021/10/30 04:26:57;;;;;;;2.37;1.87;;;;;;;7.89;55.01;94750.72;5069597;28;20181;-77
2021/10/30 04:29:22;;;;;;;3.17;2.07;;;;;;;7.90;54.81;94745.41;5062343;28;20294;-77
2021/10/30 04:31:49;;;;;;;2.43;1.97;;;;;;;7.95;54.50;94750.09;5043144;28;20174;-77
2021/10/30 04:34:18;;;;;;;2.10;1.80;;;;;;;7.98;54.77;94754.97;5048699;28;20867;-76
2021/10/30 04:36:45;;;;;;;2.70;1.90;;;;;;;7.92;54.82;94746.03;5049333;28;20178;-77
2021/10/30 04:39:11;;;;;;;2.43;1.80;;;;;;;7.90;55.01;94744.59;5049899;28;20198;-77
2021/10/30 04:41:38;;;;;;;3.83;2.03;;;;;;;7.96;54.65;94741.41;5061043;28;20200;-77
2021/10/30 04:44:04;;;;;;;3.37;1.70;;;;;;;8.03;54.44;94744.97;5068751;28;20177;-77
2021/10/30 04:46:30;;;;;;;1.87;1.67;;;;;;;8.00;54.03;94740.13;5069444;28;20187;-77
2021/10/30 04:48:55;;;;;;;3.10;2.00;;;;;;;8.02;54.03;94735.59;5069013;28;20213;-77
2021/10/30 04:51:20;;;;;;;2.77;1.60;;;;;;;7.98;54.49;94729.13;5044584;28;20201;-77
2021/10/30 04:53:46;;;;;;;3.33;1.77;;;;;;;7.99;54.28;94729.94;5055114;28;20186;-77
2021/10/30 04:56:11;;;;;;;3.13;1.93;;;;;;;8.01;53.98;94731.41;5049285;28;20174;-77
2021/10/30 04:58:43;;;;;;;4.70;1.80;;;;;;;7.98;54.25;94725.72;5049200;28;20197;-77
2021/10/30 05:01:09;;;;;;;2.30;1.97;;;;;;;8.00;53.84;94722.03;5033838;28;20185;-77
2021/10/30 05:03:34;;;;;;;2.10;1.73;;;;;;;7.93;54.24;94726.19;5056551;28;20660;-77
2021/10/30 05:05:59;;;;;;;3.20;1.77;;;;;;;7.96;53.78;94723.31;5050381;28;20227;-77
2021/10/30 05:08:24;;;;;;;1.83;1.53;;;;;;;7.91;53.98;94717.78;5050308;28;20259;-77
2021/10/30 05:10:50;;;;;;;3.00;2.00;;;;;;;7.97;53.86;94719.75;5050793;28;20205;-77
2021/10/30 05:13:15;;;;;;;2.30;1.80;;;;;;;7.92;53.89;94712.44;5063270;28;20281;-77
2021/10/30 05:15:40;;;;;;;3.00;1.63;;;;;;;7.94;53.88;94712.28;5055402;28;20181;-77
2021/10/30 05:18:06;;;;;;;4.80;1.60;;;;;;;7.80;53.93;94705.09;5073699;28;20177;-77
2021/10/30 05:20:31;;;;;;;1.43;1.20;;;;;;;7.74;54.06;94693.56;5072586;28;20194;-77
2021/10/30 05:22:56;;;;;;;2.47;1.70;;;;;;;7.80;53.49;94694.75;5065426;28;20264;-77
2021/10/30 05:25:23;;;;;;;1.47;1.30;;;;;;;7.82;53.37;94693.63;5064618;28;20200;-77
2021/10/30 05:27:48;;;;;;;3.10;1.70;;;;;;;7.79;53.37;94688.78;5072683;28;20173;-77
2021/10/30 05:30:13;;;;;;;2.53;1.77;;;;;;;7.83;53.88;94694.44;5072497;28;20213;-77
2021/10/30 05:32:38;;;;;;;2.37;1.40;;;;;;;7.80;53.96;94698.16;5053368;28;20604;-77
2021/10/30 05:35:04;;;;;;;2.77;1.67;;;;;;;7.83;53.51;94686.69;5061476;28;20217;-77
2021/10/30 05:37:30;;;;;;;1.73;1.40;;;;;;;7.78;53.29;94699.28;5072987;28;20242;-77
2021/10/30 05:39:55;;;;;;;1.77;1.40;;;;;;;7.77;52.96;94689.88;5072244;28;20193;-77
2021/10/30 05:42:20;;;;;;;4.30;1.50;;;;;;;7.77;53.24;94700.22;5072401;28;20536;-77
2021/10/30 05:44:46;;;;;;;3.63;1.67;;;;;;;7.76;53.07;94694.22;5064352;28;20191;-77
2021/10/30 05:47:11;;;;;;;2.43;1.43;;;;;;;7.77;52.95;94695.03;5062218;28;20185;-77
2021/10/30 05:49:39;;;;;;;2.57;1.43;;;;;;;7.80;52.50;94680.06;5060147;28;20213;-77
2021/10/30 05:52:06;;;;;;;2.20;1.33;;;;;;;7.94;52.43;94673.50;5035728;28;20582;-76
2021/10/30 05:54:31;;;;;;;1.77;1.40;;;;;;;7.94;52.71;94663.16;5036443;28;20240;-77
2021/10/30 05:56:57;;;;;;;2.87;1.57;;;;;;;7.96;53.06;94661.25;5063287;28;20205;-77
2021/10/30 05:59:22;;;;;;;2.90;1.60;;;;;;;7.90;53.42;94654.91;5064827;28;20193;-77
2021/10/30 06:01:47;;;;;;;2.20;1.67;;;;;;;7.86;53.44;94647.59;5071842;28;20648;-76
2021/10/30 06:04:13;;;;;;;1.53;1.40;;;;;;;7.85;53.15;94643.41;5054451;28;20649;-77
2021/10/30 06:06:38;;;;;;;1.90;1.60;;;;;;;7.91;52.96;94642.78;5046047;28;20216;-77
2021/10/30 06:09:03;;;;;;;3.80;1.67;;;;;;;7.94;52.97;94634.72;5068606;28;20267;-76
2021/10/30 06:11:29;;;;;;;2.47;1.50;;;;;;;7.97;53.04;94628.47;5071477;28;20667;-77
2021/10/30 06:13:54;;;;;;;2.17;1.63;;;;;;;8.00;52.71;94622.97;5070870;28;20181;-76
2021/10/30 06:16:20;;;;;;;3.90;2.10;;;;;;;8.09;52.71;94619.47;5064586;28;20252;-77
2021/10/30 06:18:45;;;;;;;2.83;2.20;;;;;;;8.09;52.81;94617.69;5062861;28;20197;-76
2021/10/30 06:21:10;;;;;;;3.07;2.07;;;;;;;8.09;53.26;94614.28;5071060;28;20213;-77
2021/10/30 06:23:36;;;;;;;5.47;2.03;;;;;;;8.15;52.87;94611.91;5070571;28;20184;-76
2021/10/30 06:26:02;;;;;;;3.67;2.03;;;;;;;8.22;53.27;94597.38;5069468;28;20717;-76
2021/10/30 06:28:28;;;;;;;4.53;2.40;;;;;;;8.18;53.58;94595.25;5051711;28;20295;-76
2021/10/30 06:30:53;;;;;;;2.33;2.07;;;;;;;8.26;53.62;94599.66;5051728;28;20295;-79
2021/10/30 06:33:19;;;;;;;2.90;2.30;;;;;;;8.22;54.03;94594.00;5053287;28;20184;-78
2021/10/30 06:35:44;;;;;;;4.27;2.30;;;;;;;8.34;54.11;94590.13;5053471;28;20185;-81
2021/10/30 06:38:11;;;;;;;3.67;1.97;;;;;;;8.39;54.13;94589.69;5042485;28;20196;-82
2021/10/30 06:40:36;;;;;;;3.40;1.90;;;;;;;8.45;53.99;94583.88;5061808;28;20652;-80
2021/10/30 06:43:01;;;;;;;2.63;2.13;;;;;;;8.44;54.33;94590.84;5052588;28;20182;-79
2021/10/30 06:45:27;;;;;;;3.07;2.40;;;;;;;8.45;54.21;94586.47;5034529;28;20182;-77
2021/10/30 06:47:52;;;;;;;2.60;2.13;;;;;;;8.44;54.08;94600.38;5051902;28;20181;-77
2021/10/30 06:50:20;;;;;;;4.90;2.80;;;;;;;8.48;54.21;94586.16;5060533;28;20268;-77
2021/10/30 06:52:51;;;;;;;3.40;2.80;;;;;;;8.58;54.40;94597.19;5071600;28;20199;-77
2021/10/30 06:55:17;;;;;;;2.53;2.03;;;;;;;8.54;54.47;94601.06;5070974;28;20207;-77
2021/10/30 06:57:43;;;;;;;3.00;2.33;;;;;;;8.56;54.52;94588.75;5071743;28;20731;-78
2021/10/30 07:00:09;;;;;;;3.03;2.50;;;;;;;8.58;55.00;94597.19;5043391;28;20286;-77
2021/10/30 07:02:34;;;;;;;3.33;2.40;;;;;;;8.65;54.74;94602.53;5035088;28;20177;-78
2021/10/30 07:05:00;;;;;;;5.73;3.00;;;;;;;8.79;54.49;94599.31;5035008;28;20185;-79
2021/10/30 07:07:26;;;;;;;3.90;2.47;;;;;;;8.70;55.16;94610.63;5055554;28;20189;-78
2021/10/30 07:09:54;;;;;;;3.60;2.70;;;;;;;8.84;54.29;94604.03;5053660;28;20206;-77
2021/10/30 07:12:20;;;;;;;3.13;2.47;;;;;;;8.88;54.31;94603.53;5065171;28;20212;-79
2021/10/30 07:14:45;;;;;;;4.20;2.80;;;;;;;8.90;54.01;94606.78;5054865;28;20178;-78
2021/10/30 07:17:10;;;;;;;5.93;3.17;;;;;;;8.99;53.99;94599.81;5040991;28;20235;-78
2021/10/30 07:19:36;;;;;;;3.43;2.40;;;;;;;9.01;54.02;94597.88;5069708;28;20208;-79
2021/10/30 07:22:01;;;;;;;5.43;2.67;;;;;;;8.97;54.23;94592.22;5062145;28;20182;-78
2021/10/30 07:24:26;;;;;;;3.60;2.40;;;;;;;9.12;53.61;94591.59;5055714;28;20559;-78
2021/10/30 07:26:52;;;;;;;3.17;2.57;;;;;;;9.10;53.78;94586.59;5076005;28;20188;-78
2021/10/30 07:29:17;;;;;;;3.90;3.07;;;;;;;9.03;54.20;94583.00;5075517;28;20216;-78
2021/10/30 07:31:42;;;;;;;5.00;3.10;;;;;;;9.02;54.71;94592.56;5066383;28;20189;-78
2021/10/30 07:34:08;;;;;;;5.93;2.87;;;;;;;8.97;54.78;94586.25;5057040;28;20645;-78
2021/10/30 07:36:33;;;;;;;5.37;2.90;;;;;;;9.02;54.96;94581.41;5054796;28;20174;-79
2021/10/30 07:38:58;;;;;;;4.97;2.93;;;;;;;8.98;55.28;94572.31;5054928;28;20216;-78
2021/10/30 07:41:24;;;;;;;3.57;2.67;;;;;;;9.05;55.17;94555.97;5057788;28;20273;-78
2021/10/30 07:43:53;;;;;;;4.73;2.80;;;;;;;9.13;54.81;94565.53;5065540;28;20208;-78
2021/10/30 07:46:19;;;;;;;4.50;3.00;;;;;;;9.09;55.42;94577.97;5058420;28;20524;-78
2021/10/30 07:48:44;;;;;;;6.13;2.90;;;;;;;9.11;55.74;94577.84;5074638;28;20269;-78
2021/10/30 07:51:10;;;;;;;4.47;3.03;;;;;;;9.17;55.81;94574.59;5073942;28;20177;-78
2021/10/30 07:53:35;;;;;;;3.90;2.77;;;;;;;9.19;55.76;94580.44;5048093;28;20182;-78
2021/10/30 07:56:00;;;;;;;7.77;3.40;;;;;;;9.14;55.89;94577.50;5069122;28;20218;-78
2021/10/30 07:58:25;;;;;;;4.57;3.10;;;;;;;9.28;55.68;94584.63;5073394;28;20211;-78
2021/10/30 08:00:51;;;;;;;4.13;3.50;;;;;;;9.23;55.85;94586.88;5057240;28;20177;-78
2021/10/30 08:03:16;;;;;;;4.27;2.80;;;;;;;9.36;55.06;94594.16;5059707;28;20656;-77
2021/10/30 08:05:41;;;;;;;5.37;3.47;;;;;;;9.33;54.85;94608.25;5060228;28;20597;-77
2021/10/30 08:08:08;;;;;;;4.53;3.10;;;;;;;9.39;54.67;94595.63;5052591;28;20174;-77
2021/10/30 08:10:33;;;;;;;3.17;2.50;;;;;;;9.41;54.57;94601.47;5054267;28;20208;-78
2021/10/30 08:12:58;;;;;;;3.77;2.70;;;;;;;9.46;54.68;94594.00;5054261;28;20193;-80
2021/10/30 08:15:24;;;;;;;4.50;2.93;;;;;;;9.47;54.69;94585.25;5045703;28;20843;-79
2021/10/30 08:17:52;;;;;;;3.77;2.67;;;;;;;9.58;54.39;94584.91;5074475;28;20173;-80
2021/10/30 08:20:17;;;;;;;3.97;2.50;;;;;;;9.71;53.94;94586.97;5053756;28;20197;-79
2021/10/30 08:22:43;;;;;;;4.73;2.47;;;;;;;9.82;53.02;94589.25;5054004;28;20174;-78
2021/10/30 08:25:08;;;;;;;6.20;2.50;;;;;;;9.88;52.59;94597.16;5045846;28;20355;-80
2021/10/30 08:27:34;;;;;;;4.23;2.60;;;;;;;9.84;53.09;94601.06;5073859;28;20181;-80
2021/10/30 08:29:59;;;;;;;2.63;2.10;;;;;;;10.04;52.18;94600.69;5072125;28;20723;-79
2021/10/30 08:32:24;;;;;;;4.17;2.07;;;;;;;9.99;52.10;94603.78;5072229;28;20644;-79
2021/10/30 08:34:50;;;;;;;2.87;2.30;;;;;;;10.09;52.13;94601.81;5063354;28;20189;-79
2021/10/30 08:37:15;;;;;;;4.43;2.60;;;;;;;10.05;51.92;94612.66;5059468;28;20606;-80
2021/10/30 08:39:41;;;;;;;4.10;2.63;;;;;;;9.93;52.50;94618.22;5035023;28;20190;-78
2021/10/30 08:42:06;;;;;;;3.93;3.10;;;;;;;10.04;52.73;94626.63;5051500;28;20178;-78
2021/10/30 08:44:34;;;;;;;3.93;2.97;;;;;;;10.08;53.16;94630.50;5060852;28;20204;-78
2021/10/30 08:47:00;;;;;;;3.17;2.50;;;;;;;10.10;53.31;94634.56;5054732;28;20181;-78
2021/10/30 08:49:26;;;;;;;3.40;3.10;;;;;;;9.99;54.99;94644.47;5059402;28;20259;-78
2021/10/30 08:51:51;;;;;;;4.13;3.13;;;;;;;9.62;57.04;94638.84;5059648;28;20177;-78
2021/10/30 08:54:17;;;;;;;3.87;2.67;;;;;;;9.27;58.26;94634.00;5064847;28;20193;-78
2021/10/30 08:56:43;;;;;;;3.80;2.87;;;;;;;9.22;58.43;94625.91;5043796;28;20244;-78
2021/10/30 08:59:09;;;;;;;3.67;3.00;;;;;;;9.12;58.86;94620.09;5037954;28;20237;-78
2021/10/30 09:01:46;;;;;;;4.47;2.97;;;;;;;9.11;59.13;94629.63;5038473;28;20212;-78
2021/10/30 09:04:13;;;;;;;6.77;4.60;;;;;;;9.08;59.81;94622.16;5039789;28;20525;-78
2021/10/30 09:06:45;;;;;;;4.47;2.93;;;;;;;8.89;59.20;94620.69;5054442;28;20201;-77
2021/10/30 09:09:14;;;;;;;5.47;3.23;;;;;;;8.96;59.76;94618.28;5038119;28;20731;-78
2021/10/30 09:11:41;;;;;;;5.07;3.87;;;;;;;8.63;61.35;94628.56;5038693;28;20280;-78
2021/10/30 09:14:16;;;;;;;8.27;3.93;;;;;;;8.45;63.01;94622.69;5055118;28;20174;-78
2021/10/30 09:16:41;;;;;;;6.40;3.83;;;;;;;8.46;62.72;94621.72;5048649;28;20177;-78
2021/10/30 09:19:10;;;;;;;5.47;3.90;;;;;;;8.42;62.54;94629.00;5055195;28;20669;-78
2021/10/30 09:21:36;;;;;;;4.80;3.93;;;;;;;8.20;64.03;94625.16;5054998;28;20178;-78
2021/10/30 09:24:01;;;;;;;4.97;3.97;;;;;;;8.09;65.18;94620.25;5055378;28;20581;-78
2021/10/30 09:26:28;;;;;;;6.87;4.67;;;;;;;8.05;65.75;94634.47;5058991;28;20294;-79
2021/10/30 09:29:02;;;;;;;6.57;5.43;;;;;;;8.01;65.84;94620.22;5066556;28;20207;-78
2021/10/30 09:31:28;;;;;;;6.23;4.77;;;;;;;7.92;66.43;94616.78;5074732;28;20190;-78
2021/10/30 09:34:27;;;;;;;5.20;4.57;;;;;;;7.95;66.15;94619.09;5074119;28;20660;-78
2021/10/30 09:36:56;;;;;;;5.60;4.53;;;;;;;7.84;66.87;94613.34;5051442;28;20206;-78
2021/10/30 09:39:21;;;;;;;5.50;4.50;;;;;;;7.97;65.97;94618.13;5054746;28;20274;-78
2021/10/30 09:41:52;;;;;;;7.70;4.60;;;;;;;8.06;66.21;94625.75;5063040;28;20205;-78
2021/10/30 09:44:22;;;;;;;6.10;4.70;;;;;;;8.09;66.77;94633.19;5071778;28;20181;-78
2021/10/30 09:46:53;;;;;;;6.00;4.97;;;;;;;8.13;66.91;94621.59;5058290;28;20772;-81
2021/10/30 09:49:38;;;;;;;6.00;4.37;;;;;;;8.21;66.26;94636.31;5058464;28;20209;-78
2021/10/30 09:52:08;;;;;;;6.37;4.90;;;;;;;8.29;66.66;94628.59;5066477;28;20273;-78
2021/10/30 09:54:39;;;;;;;9.23;4.70;;;;;;;8.40;66.18;94638.72;5065574;28;20178;-78
2021/10/30 09:57:06;;;;;;;6.00;3.73;;;;;;;8.28;65.86;94626.16;5040075;28;20232;-78
2021/10/30 09:59:34;;;;;;;7.33;3.90;;;;;;;8.39;66.73;94633.66;5055729;28;20255;-79
2021/10/30 10:01:59;;;;;;;4.87;3.60;;;;;;;8.46;66.48;94634.66;5056491;28;20201;-78
2021/10/30 10:04:26;;;;;;;5.17;3.70;;;;;;;8.45;66.84;94630.47;5055408;28;20170;-78
2021/10/30 10:06:54;;;;;;;265.00;89.17;;;;;;;8.49;66.85;94636.97;5056976;28;20257;-78
2021/10/30 10:09:20;;;;;;;55.83;25.47;;;;;;;8.48;67.42;94637.91;5056506;28;20318;-79
2021/10/30 10:11:46;;;;;;;11.77;6.63;;;;;;;8.48;66.85;94640.47;5045467;28;20185;-78
2021/10/30 10:14:14;;;;;;;9.27;4.90;;;;;;;8.43;67.13;94653.91;5056008;28;20182;-78
2021/10/30 10:16:39;;;;;;;11.27;5.73;;;;;;;8.59;67.06;94654.94;5054253;28;20577;-78
2021/10/30 10:19:05;;;;;;;31.63;12.50;;;;;;;8.67;66.95;94662.72;5052217;28;20194;-78
2021/10/30 10:21:34;;;;;;;14.70;10.03;;;;;;;8.49;66.77;94640.34;5036169;28;20673;-78
2021/10/30 10:24:00;;;;;;;18.37;6.30;;;;;;;8.44;67.06;94626.25;5051319;28;20182;-78
2021/10/30 10:26:47;;;;;;;17.93;5.50;;;;;;;8.30;67.86;94612.09;5035349;28;20174;-79
2021/10/30 10:29:14;;;;;;;7.30;4.60;;;;;;;8.42;67.74;94623.03;5036884;28;20205;-78
2021/10/30 10:31:50;;;;;;;10.43;5.43;;;;;;;8.21;71.36;94587.97;5053340;28;20184;-80
2021/10/30 10:34:18;;;;;;;8.33;5.00;;;;;;;8.36;71.34;94577.06;5052185;28;20227;-80
2021/10/30 10:36:45;;;;;;;7.37;5.43;;;;;;;8.29;72.10;94591.56;5052724;28;20189;-80
2021/10/30 10:39:13;;;;;;;8.90;5.90;;;;;;;8.31;73.83;94620.69;5062957;28;20205;-79
2021/10/30 10:41:38;;;;;;;11.03;8.50;;;;;;;8.41;73.45;94629.16;5047069;28;20201;-79
2021/10/30 10:44:08;;;;;;;5.83;4.50;;;;;;;8.13;75.40;94629.34;5071944;28;20173;-78
2021/10/30 10:46:40;;;;;;;9.20;4.43;;;;;;;8.19;75.05;94613.19;5036372;28;20188;-78
2021/10/30 10:49:46;;;;;;;7.57;4.23;;;;;;;8.31;74.74;94605.97;5036030;28;20558;-79
2021/10/30 10:55:04;;;;;;;6.73;5.47;;;;;;;8.45;73.79;94612.34;5073275;28;20192;-79
2021/10/30 10:57:33;;;;;;;9.30;4.90;;;;;;;8.51;73.94;94609.13;5072723;28;20275;-77
2021/10/30 11:00:00;;;;;;;8.60;6.17;;;;;;;8.60;74.45;94605.59;5073385;28;20211;-78
2021/10/30 11:02:30;;;;;;;6.20;5.07;;;;;;;8.60;74.42;94615.97;5073846;28;20188;-78
2021/10/30 11:05:08;;;;;;;5.60;4.40;;;;;;;8.64;74.06;94611.25;5055431;28;20363;-79
2021/10/30 11:07:45;;;;;;;4.93;3.63;;;;;;;8.62;73.94;94624.38;5059964;28;20182;-78
2021/10/30 11:10:13;;;;;;;4.97;4.30;;;;;;;8.64;74.79;94645.72;5061093;28;20213;-79
2021/10/30 11:12:41;;;;;;;4.97;4.47;;;;;;;8.62;76.02;94633.91;5052909;28;20231;-79
2021/10/30 11:15:09;;;;;;;6.63;4.17;;;;;;;8.57;75.62;94621.47;5035863;28;20962;-79
2021/10/30 11:18:09;;;;;;;12.03;4.73;;;;;;;8.58;75.12;94598.97;5052267;28;20173;-77
2021/10/30 11:20:38;;;;;;;6.07;4.23;;;;;;;8.56;76.58;94593.13;5037082;28;20200;-77
2021/10/30 11:23:04;;;;;;;5.73;4.33;;;;;;;8.56;77.89;94577.59;5051729;28;20657;-77
2021/10/30 11:25:32;;;;;;;5.77;4.20;;;;;;;8.56;78.19;94631.94;5033080;28;20281;-77
2021/10/30 11:27:59;;;;;;;6.37;5.20;;;;;;;8.56;79.25;94639.72;5051252;28;20890;-77
2021/10/30 11:30:31;;;;;;;10.30;5.10;;;;;;;8.51;80.19;94648.75;5051731;28;20230;-77
2021/10/30 11:33:29;;;;;;;7.17;6.23;;;;;;;8.53;80.93;94633.06;5051292;28;20205;-77
2021/10/30 11:36:04;;;;;;;9.07;5.83;;;;;;;8.59;82.03;94614.34;5046668;28;20193;-77
2021/10/30 11:38:34;;;;;;;7.13;5.30;;;;;;;8.41;83.69;94611.88;5053794;28;20283;-77
2021/10/30 11:41:06;;;;;;;8.80;5.53;;;;;;;8.40;83.66;94646.47;5057043;28;20277;-78
2021/10/30 11:43:33;;;;;;;8.43;5.53;;;;;;;8.22;85.05;94632.78;5035132;28;20189;-79